sensor_id;sensor_type;location;lat;lon;timestamp;pressure;altitude;pressure_sealevel;temperature;humidity
60061;BME280;45933;51.336;12.612;2023-05-19T00:01:26;100840.25;;;14.04;41.80
60061;BME280;45933;51.336;12.612;2023-05-19T00:03:56;100843.75;;;14.03;41.54
60061;BME280;45933;51.336;12.612;2023-05-19T00:06:25;100843.75;;;14.02;42.00
60061;BME280;45933;51.336;12.612;2023-05-19T00:09:02;100838.50;;;14.05;41.52
60061;BME280;45933;51.336;12.612;2023-05-19T00:11:28;100838.53;;;13.97;41.84
60061;BME280;45933;51.336;12.612;2023-05-19T00:13:55;100837.72;;;13.94;41.96
60061;BME280;45933;51.336;12.612;2023-05-19T00:16:22;100838.56;;;13.94;41.98
60061;BME280;45933;51.336;12.612;2023-05-19T00:18:48;100830.72;;;13.91;41.97
60061;BME280;45933;51.336;12.612;2023-05-19T00:21:14;100832.53;;;13.88;42.23
60061;BME280;45933;51.336;12.612;2023-05-19T00:23:40;100824.66;;;13.86;42.21
60061;BME280;45933;51.336;12.612;2023-05-19T00:26:05;100828.19;;;13.82;42.11
60061;BME280;45933;51.336;12.612;2023-05-19T00:28:30;100831.69;;;13.79;42.19
60061;BME280;45933;51.336;12.612;2023-05-19T00:30:55;100822.97;;;13.76;42.32
60061;BME280;45933;51.336;12.612;2023-05-19T00:33:21;100829.97;;;13.74;42.55
60061;BME280;45933;51.336;12.612;2023-05-19T00:35:46;100820.41;;;13.70;42.64
60061;BME280;45933;51.336;12.612;2023-05-19T00:38:12;100826.53;;;13.69;42.72
60061;BME280;45933;51.336;12.612;2023-05-19T00:40:37;100818.69;;;13.64;42.63
60061;BME280;45933;51.336;12.612;2023-05-19T00:43:02;100813.50;;;13.58;42.96
60061;BME280;45933;51.336;12.612;2023-05-19T00:45:29;100816.13;;;13.53;42.85
60061;BME280;45933;51.336;12.612;2023-05-19T00:47:55;100813.56;;;13.50;42.68
60061;BME280;45933;51.336;12.612;2023-05-19T00:50:20;100814.44;;;13.48;42.91
60061;BME280;45933;51.336;12.612;2023-05-19T00:52:48;100811.84;;;13.45;42.86
60061;BME280;45933;51.336;12.612;2023-05-19T00:55:13;100811.84;;;13.43;43.01
60061;BME280;45933;51.336;12.612;2023-05-19T00:57:39;100816.22;;;13.41;43.02
60061;BME280;45933;51.336;12.612;2023-05-19T01:00:05;100814.47;;;13.39;43.11
60061;BME280;45933;51.336;12.612;2023-05-19T01:02:31;100810.13;;;13.38;43.28
60061;BME280;45933;51.336;12.612;2023-05-19T01:04:57;100814.47;;;13.39;43.57
60061;BME280;45933;51.336;12.612;2023-05-19T01:07:23;100816.25;;;13.35;43.52
60061;BME280;45933;51.336;12.612;2023-05-19T01:09:50;100813.63;;;13.33;43.66
60061;BME280;45933;51.336;12.612;2023-05-19T01:12:15;100825.84;;;13.33;43.68
60061;BME280;45933;51.336;12.612;2023-05-19T01:14:41;100819.75;;;13.31;43.78
60061;BME280;45933;51.336;12.612;2023-05-19T01:17:16;100813.63;;;13.33;43.33
60061;BME280;45933;51.336;12.612;2023-05-19T01:20:08;100811.00;;;13.37;42.60
60061;BME280;45933;51.336;12.612;2023-05-19T01:23:06;100816.25;;;13.37;42.79
60061;BME280;45933;51.336;12.612;2023-05-19T01:29:02;100811.94;;;13.23;43.79
60061;BME280;45933;51.336;12.612;2023-05-19T01:31:32;100812.81;;;13.16;44.10
60061;BME280;45933;51.336;12.612;2023-05-19T01:33:59;100810.22;;;13.15;44.19
60061;BME280;45933;51.336;12.612;2023-05-19T01:36:25;100807.59;;;13.10;44.40
60061;BME280;45933;51.336;12.612;2023-05-19T01:38:53;100811.97;;;13.11;44.32
60061;BME280;45933;51.336;12.612;2023-05-19T01:41:20;100809.34;;;13.06;44.17
60061;BME280;45933;51.336;12.612;2023-05-19T01:43:47;100817.22;;;13.06;44.38
60061;BME280;45933;51.336;12.612;2023-05-19T01:46:14;100818.94;;;13.07;44.49
60061;BME280;45933;51.336;12.612;2023-05-19T01:48:41;100822.44;;;13.06;44.31
60061;BME280;45933;51.336;12.612;2023-05-19T01:51:06;100818.97;;;13.04;44.49
60061;BME280;45933;51.336;12.612;2023-05-19T01:53:31;100819.84;;;13.05;44.72
60061;BME280;45933;51.336;12.612;2023-05-19T01:55:58;100819.84;;;13.05;44.62
60061;BME280;45933;51.336;12.612;2023-05-19T01:58:45;100822.44;;;13.14;43.53
60061;BME280;45933;51.336;12.612;2023-05-19T02:01:39;100822.41;;;13.16;43.41
60061;BME280;45933;51.336;12.612;2023-05-19T02:07:12;100813.72;;;13.11;43.63
60061;BME280;45933;51.336;12.612;2023-05-19T02:10:03;100810.22;;;13.10;43.87
60061;BME280;45933;51.336;12.612;2023-05-19T02:12:37;100817.22;;;13.02;44.28
60061;BME280;45933;51.336;12.612;2023-05-19T02:15:05;100820.75;;;12.95;44.99
60061;BME280;45933;51.336;12.612;2023-05-19T02:17:33;100820.75;;;12.92;44.98
60061;BME280;45933;51.336;12.612;2023-05-19T02:20:00;100816.41;;;12.92;44.48
60061;BME280;45933;51.336;12.612;2023-05-19T02:22:25;100817.25;;;12.91;44.92
60061;BME280;45933;51.336;12.612;2023-05-19T02:24:51;100813.78;;;12.91;44.65
60061;BME280;45933;51.336;12.612;2023-05-19T02:27:16;100809.44;;;12.88;45.00
60061;BME280;45933;51.336;12.612;2023-05-19T02:29:42;100807.69;;;12.86;45.05
60061;BME280;45933;51.336;12.612;2023-05-19T02:32:07;100804.22;;;12.87;45.02
60061;BME280;45933;51.336;12.612;2023-05-19T02:34:33;100805.09;;;12.84;45.05
60061;BME280;45933;51.336;12.612;2023-05-19T02:36:58;100793.78;;;12.82;45.23
60061;BME280;45933;51.336;12.612;2023-05-19T02:39:23;100796.38;;;12.80;45.19
60061;BME280;45933;51.336;12.612;2023-05-19T02:41:48;100798.97;;;12.80;45.20
60061;BME280;45933;51.336;12.612;2023-05-19T02:44:14;100798.13;;;12.80;45.31
60061;BME280;45933;51.336;12.612;2023-05-19T02:46:39;100804.22;;;12.79;45.45
60061;BME280;45933;51.336;12.612;2023-05-19T02:49:04;100797.28;;;12.76;45.39
60061;BME280;45933;51.336;12.612;2023-05-19T02:51:30;100794.66;;;12.76;45.17
60061;BME280;45933;51.336;12.612;2023-05-19T02:53:55;100799.88;;;12.75;45.90
60061;BME280;45933;51.336;12.612;2023-05-19T02:56:20;100804.25;;;12.73;45.34
60061;BME280;45933;51.336;12.612;2023-05-19T02:58:45;100811.25;;;12.71;45.52
60061;BME280;45933;51.336;12.612;2023-05-19T03:01:11;100806.00;;;12.69;45.23
60061;BME280;45933;51.336;12.612;2023-05-19T03:03:36;100810.38;;;12.69;45.43
60061;BME280;45933;51.336;12.612;2023-05-19T03:06:01;100803.41;;;12.65;45.59
60061;BME280;45933;51.336;12.612;2023-05-19T03:08:27;100813.00;;;12.64;45.47
60061;BME280;45933;51.336;12.612;2023-05-19T03:10:52;100808.63;;;12.63;45.46
60061;BME280;45933;51.336;12.612;2023-05-19T03:13:18;100805.16;;;12.61;45.61
60061;BME280;45933;51.336;12.612;2023-05-19T03:15:43;100802.53;;;12.60;45.79
60061;BME280;45933;51.336;12.612;2023-05-19T03:18:09;100807.78;;;12.56;45.71
60061;BME280;45933;51.336;12.612;2023-05-19T03:20:36;100805.16;;;12.53;45.78
60061;BME280;45933;51.336;12.612;2023-05-19T03:23:02;100804.31;;;12.50;45.86
60061;BME280;45933;51.336;12.612;2023-05-19T03:25:27;100800.81;;;12.48;45.74
60061;BME280;45933;51.336;12.612;2023-05-19T03:27:53;100806.94;;;12.45;45.89
60061;BME280;45933;51.336;12.612;2023-05-19T03:30:19;100805.19;;;12.43;45.83
60061;BME280;45933;51.336;12.612;2023-05-19T03:32:44;100799.97;;;12.40;45.79
60061;BME280;45933;51.336;12.612;2023-05-19T03:35:09;100802.59;;;12.37;45.95
60061;BME280;45933;51.336;12.612;2023-05-19T03:37:35;100804.34;;;12.35;46.19
60061;BME280;45933;51.336;12.612;2023-05-19T03:40:00;100802.59;;;12.32;46.28
60061;BME280;45933;51.336;12.612;2023-05-19T03:42:26;100802.59;;;12.30;46.20
60061;BME280;45933;51.336;12.612;2023-05-19T03:44:51;100807.84;;;12.29;46.49
60061;BME280;45933;51.336;12.612;2023-05-19T03:47:16;100814.78;;;12.28;46.38
60061;BME280;45933;51.336;12.612;2023-05-19T03:49:42;100809.56;;;12.27;46.33
60061;BME280;45933;51.336;12.612;2023-05-19T03:52:07;100803.47;;;12.26;46.71
60061;BME280;45933;51.336;12.612;2023-05-19T03:54:36;100806.09;;;12.26;46.66
60061;BME280;45933;51.336;12.612;2023-05-19T03:57:04;100809.59;;;12.24;46.90
60061;BME280;45933;51.336;12.612;2023-05-19T03:59:30;100814.81;;;12.24;46.50
60061;BME280;45933;51.336;12.612;2023-05-19T04:01:55;100818.28;;;12.23;46.78
60061;BME280;45933;51.336;12.612;2023-05-19T04:04:21;100808.69;;;12.22;46.66
60061;BME280;45933;51.336;12.612;2023-05-19T04:06:47;100813.94;;;12.23;46.88
60061;BME280;45933;51.336;12.612;2023-05-19T04:09:13;100818.28;;;12.24;47.04
60061;BME280;45933;51.336;12.612;2023-05-19T04:11:39;100818.28;;;12.23;46.95
60061;BME280;45933;51.336;12.612;2023-05-19T04:14:05;100817.41;;;12.22;47.16
60061;BME280;45933;51.336;12.612;2023-05-19T04:16:31;100818.28;;;12.21;47.40
60061;BME280;45933;51.336;12.612;2023-05-19T04:18:57;100817.41;;;12.21;47.09
60061;BME280;45933;51.336;12.612;2023-05-19T04:21:22;100828.75;;;12.21;47.43
60061;BME280;45933;51.336;12.612;2023-05-19T04:23:47;100826.13;;;12.24;47.26
60061;BME280;45933;51.336;12.612;2023-05-19T04:26:13;100827.88;;;12.25;47.63
60061;BME280;45933;51.336;12.612;2023-05-19T04:28:39;100826.13;;;12.27;47.44
60061;BME280;45933;51.336;12.612;2023-05-19T04:31:06;100822.66;;;12.30;47.50
60061;BME280;45933;51.336;12.612;2023-05-19T04:33:35;100820.88;;;12.34;47.58
60061;BME280;45933;51.336;12.612;2023-05-19T04:36:00;100823.50;;;12.38;47.78
60061;BME280;45933;51.336;12.612;2023-05-19T04:38:29;100820.88;;;12.43;47.95
60061;BME280;45933;51.336;12.612;2023-05-19T04:40:54;100812.16;;;12.47;47.77
60061;BME280;45933;51.336;12.612;2023-05-19T04:43:20;100826.97;;;12.51;47.83
60061;BME280;45933;51.336;12.612;2023-05-19T04:45:46;100820.88;;;12.55;47.95
60061;BME280;45933;51.336;12.612;2023-05-19T04:48:14;100819.09;;;12.60;47.98
60061;BME280;45933;51.336;12.612;2023-05-19T04:50:39;100817.34;;;12.67;47.80
60061;BME280;45933;51.336;12.612;2023-05-19T04:53:06;100819.09;;;12.71;47.70
60061;BME280;45933;51.336;12.612;2023-05-19T04:55:31;100826.03;;;12.79;47.81
60061;BME280;45933;51.336;12.612;2023-05-19T04:57:56;100828.63;;;12.84;47.83
60061;BME280;45933;51.336;12.612;2023-05-19T05:00:22;100820.75;;;12.90;47.69
60061;BME280;45933;51.336;12.612;2023-05-19T05:02:47;100823.38;;;12.98;47.51
60061;BME280;45933;51.336;12.612;2023-05-19T05:05:13;100817.22;;;13.02;47.91
60061;BME280;45933;51.336;12.612;2023-05-19T05:07:38;100816.34;;;13.09;47.79
60061;BME280;45933;51.336;12.612;2023-05-19T05:10:04;100813.69;;;13.17;47.56
60061;BME280;45933;51.336;12.612;2023-05-19T05:12:29;100817.16;;;13.20;48.20
60061;BME280;45933;51.336;12.612;2023-05-19T05:14:55;100814.53;;;13.29;47.91
60061;BME280;45933;51.336;12.612;2023-05-19T05:17:20;100812.75;;;13.36;47.42
60061;BME280;45933;51.336;12.612;2023-05-19T05:19:46;100813.59;;;13.41;47.43
60061;BME280;45933;51.336;12.612;2023-05-19T05:22:12;100817.06;;;13.46;47.37
60061;BME280;45933;51.336;12.612;2023-05-19T05:24:38;100818.75;;;13.53;47.00
60061;BME280;45933;51.336;12.612;2023-05-19T05:27:03;100814.34;;;13.60;46.61
60061;BME280;45933;51.336;12.612;2023-05-19T05:29:33;100805.59;;;13.66;46.71
60061;BME280;45933;51.336;12.612;2023-05-19T05:31:59;100812.53;;;13.73;46.59
60061;BME280;45933;51.336;12.612;2023-05-19T05:34:24;100813.38;;;13.78;46.60
60061;BME280;45933;51.336;12.612;2023-05-19T05:36:50;100806.34;;;13.83;46.62
60061;BME280;45933;51.336;12.612;2023-05-19T05:39:15;100810.66;;;13.90;46.63
60061;BME280;45933;51.336;12.612;2023-05-19T05:41:40;100812.31;;;13.97;46.63
60061;BME280;45933;51.336;12.612;2023-05-19T05:44:05;100814.91;;;14.05;47.18
60061;BME280;45933;51.336;12.612;2023-05-19T05:46:31;100815.75;;;14.10;47.18
60061;BME280;45933;51.336;12.612;2023-05-19T05:48:56;100820.06;;;14.16;46.70
60061;BME280;45933;51.336;12.612;2023-05-19T05:51:22;100820.00;;;14.22;47.02
60061;BME280;45933;51.336;12.612;2023-05-19T05:53:51;100823.41;;;14.33;47.13
60061;BME280;45933;51.336;12.612;2023-05-19T05:56:17;100818.97;;;14.39;46.99
60061;BME280;45933;51.336;12.612;2023-05-19T05:58:43;100819.78;;;14.45;46.98
60061;BME280;45933;51.336;12.612;2023-05-19T06:01:08;100816.22;;;14.55;46.54
60061;BME280;45933;51.336;12.612;2023-05-19T06:03:41;100823.97;;;14.65;46.92
60061;BME280;45933;51.336;12.612;2023-05-19T06:06:09;100823.06;;;14.71;46.65
60061;BME280;45933;51.336;12.612;2023-05-19T06:08:34;100822.97;;;14.79;46.91
60061;BME280;45933;51.336;12.612;2023-05-19T06:11:00;100829.84;;;14.89;46.99
60061;BME280;45933;51.336;12.612;2023-05-19T06:13:25;100829.75;;;14.98;47.31
60061;BME280;45933;51.336;12.612;2023-05-19T06:15:51;100831.34;;;15.10;46.84
60061;BME280;45933;51.336;12.612;2023-05-19T06:18:17;100831.25;;;15.17;46.42
60061;BME280;45933;51.336;12.612;2023-05-19T06:20:42;100828.50;;;15.30;46.13
60061;BME280;45933;51.336;12.612;2023-05-19T06:23:10;100830.00;;;15.44;46.75
60061;BME280;45933;51.336;12.612;2023-05-19T06:25:35;100838.69;;;15.50;46.88
60061;BME280;45933;51.336;12.612;2023-05-19T06:28:01;100828.09;;;15.57;45.71
60061;BME280;45933;51.336;12.612;2023-05-19T06:30:27;100833.28;;;15.66;45.26
60061;BME280;45933;51.336;12.612;2023-05-19T06:32:52;100833.16;;;15.74;45.37
60061;BME280;45933;51.336;12.612;2023-05-19T06:35:18;100829.53;;;15.83;46.22
60061;BME280;45933;51.336;12.612;2023-05-19T06:37:43;100825.84;;;15.93;45.62
60061;BME280;45933;51.336;12.612;2023-05-19T06:40:09;100826.66;;;15.97;45.03
60061;BME280;45933;51.336;12.612;2023-05-19T06:42:34;100816.00;;;16.06;45.38
60061;BME280;45933;51.336;12.612;2023-05-19T06:45:00;100817.63;;;16.14;44.86
60061;BME280;45933;51.336;12.612;2023-05-19T06:47:25;100829.78;;;16.20;44.63
60061;BME280;45933;51.336;12.612;2023-05-19T06:49:50;100831.38;;;16.29;44.62
60061;BME280;45933;51.336;12.612;2023-05-19T06:52:20;100825.06;;;16.40;45.11
60061;BME280;45933;51.336;12.612;2023-05-19T06:54:45;100830.13;;;16.50;44.74
60061;BME280;45933;51.336;12.612;2023-05-19T06:57:11;100833.50;;;16.58;43.78
60061;BME280;45933;51.336;12.612;2023-05-19T06:59:36;100837.75;;;16.65;43.13
60061;BME280;45933;51.336;12.612;2023-05-19T07:02:01;100838.50;;;16.75;43.23
60061;BME280;45933;51.336;12.612;2023-05-19T07:04:28;100828.69;;;16.83;42.88
60061;BME280;45933;51.336;12.612;2023-05-19T07:06:53;100834.66;;;16.91;43.80
60061;BME280;45933;51.336;12.612;2023-05-19T07:09:19;100830.19;;;16.96;42.69
60061;BME280;45933;51.336;12.612;2023-05-19T07:11:44;100832.75;;;16.99;43.16
60061;BME280;45933;51.336;12.612;2023-05-19T07:14:10;100829.13;;;17.05;42.73
60061;BME280;45933;51.336;12.612;2023-05-19T07:16:35;100828.22;;;17.06;42.75
60061;BME280;45933;51.336;12.612;2023-05-19T07:19:00;100834.22;;;17.14;42.19
60061;BME280;45933;51.336;12.612;2023-05-19T07:21:25;100827.91;;;17.21;42.81
60061;BME280;45933;51.336;12.612;2023-05-19T07:23:51;100825.97;;;17.29;42.74
60061;BME280;45933;51.336;12.612;2023-05-19T07:26:16;100818.97;;;17.30;42.50
60061;BME280;45933;51.336;12.612;2023-05-19T07:28:41;100825.84;;;17.35;42.17
60061;BME280;45933;51.336;12.612;2023-05-19T07:31:08;100822.34;;;17.35;41.89
60061;BME280;45933;51.336;12.612;2023-05-19T07:33:33;100816.97;;;17.39;41.78
60061;BME280;45933;51.336;12.612;2023-05-19T07:35:58;100816.81;;;17.47;42.24
60061;BME280;45933;51.336;12.612;2023-05-19T07:38:23;100824.69;;;17.48;43.10
60061;BME280;45933;51.336;12.612;2023-05-19T07:40:49;100814.75;;;17.60;41.64
60061;BME280;45933;51.336;12.612;2023-05-19T07:43:14;100808.38;;;17.70;41.78
60061;BME280;45933;51.336;12.612;2023-05-19T07:45:39;100800.41;;;17.71;41.38
60061;BME280;45933;51.336;12.612;2023-05-19T07:48:05;100806.34;;;17.83;41.19
60061;BME280;45933;51.336;12.612;2023-05-19T07:50:31;100808.03;;;17.85;41.23
60061;BME280;45933;51.336;12.612;2023-05-19T07:52:56;100805.97;;;17.98;41.64
60061;BME280;45933;51.336;12.612;2023-05-19T07:55:21;100803.09;;;18.07;40.97
60061;BME280;45933;51.336;12.612;2023-05-19T07:57:48;100809.88;;;18.17;41.07
60061;BME280;45933;51.336;12.612;2023-05-19T08:00:13;100809.72;;;18.23;40.69
60061;BME280;45933;51.336;12.612;2023-05-19T08:02:39;100796.19;;;18.37;41.01
60061;BME280;45933;51.336;12.612;2023-05-19T08:05:05;100801.13;;;18.49;41.01
60061;BME280;45933;51.336;12.612;2023-05-19T08:07:31;100791.13;;;18.61;40.25
60061;BME280;45933;51.336;12.612;2023-05-19T08:09:57;100796.03;;;18.76;40.68
60061;BME280;45933;51.336;12.612;2023-05-19T08:12:22;100800.13;;;18.88;40.35
60061;BME280;45933;51.336;12.612;2023-05-19T08:14:47;100804.19;;;18.98;39.54
60061;BME280;45933;51.336;12.612;2023-05-19T08:17:12;100803.91;;;19.08;39.40
60061;BME280;45933;51.336;12.612;2023-05-19T08:19:38;100801.00;;;19.18;39.05
60061;BME280;45933;51.336;12.612;2023-05-19T08:22:03;100793.53;;;19.32;39.72
60061;BME280;45933;51.336;12.612;2023-05-19T08:24:28;100794.31;;;19.36;39.73
60061;BME280;45933;51.336;12.612;2023-05-19T08:26:54;100787.84;;;19.44;38.20
60061;BME280;45933;51.336;12.612;2023-05-19T08:29:19;100788.13;;;19.65;39.28
60061;BME280;45933;51.336;12.612;2023-05-19T08:31:45;100781.38;;;19.82;39.39
60061;BME280;45933;51.336;12.612;2023-05-19T08:34:10;100785.41;;;19.94;38.18
60061;BME280;45933;51.336;12.612;2023-05-19T08:36:35;100792.84;;;20.09;37.73
60061;BME280;45933;51.336;12.612;2023-05-19T08:39:01;100793.22;;;20.24;36.53
60061;BME280;45933;51.336;12.612;2023-05-19T08:41:26;100779.53;;;20.37;36.69
60061;BME280;45933;51.336;12.612;2023-05-19T08:43:51;100781.66;;;20.53;37.16
60061;BME280;45933;51.336;12.612;2023-05-19T08:46:18;100782.78;;;20.71;37.07
60061;BME280;45933;51.336;12.612;2023-05-19T08:48:46;100770.22;;;20.76;36.10
60061;BME280;45933;51.336;12.612;2023-05-19T08:53:47;100770.25;;;20.99;35.55
60061;BME280;45933;51.336;12.612;2023-05-19T08:56:18;100763.72;;;21.08;35.66
60061;BME280;45933;51.336;12.612;2023-05-19T08:58:48;100758.41;;;21.08;34.71
60061;BME280;45933;51.336;12.612;2023-05-19T09:01:13;100755.41;;;21.17;36.02
60061;BME280;45933;51.336;12.612;2023-05-19T09:03:42;100764.97;;;21.21;34.68
60061;BME280;45933;51.336;12.612;2023-05-19T09:06:08;100768.66;;;21.17;34.31
60061;BME280;45933;51.336;12.612;2023-05-19T09:08:34;100767.50;;;21.24;33.95
60061;BME280;45933;51.336;12.612;2023-05-19T09:11:00;100761.47;;;21.21;33.83
60061;BME280;45933;51.336;12.612;2023-05-19T09:13:25;100763.25;;;21.20;34.10
60061;BME280;45933;51.336;12.612;2023-05-19T09:15:52;100762.56;;;21.15;34.05
60061;BME280;45933;51.336;12.612;2023-05-19T09:18:17;100754.28;;;21.01;33.77
60061;BME280;45933;51.336;12.612;2023-05-19T09:20:44;100753.25;;;21.05;33.92
60061;BME280;45933;51.336;12.612;2023-05-19T09:23:14;100757.03;;;20.98;34.08
60061;BME280;45933;51.336;12.612;2023-05-19T09:25:50;100751.19;;;20.89;33.34
60061;BME280;45933;51.336;12.612;2023-05-19T09:28:26;100754.00;;;20.85;34.18
60061;BME280;45933;51.336;12.612;2023-05-19T09:31:06;100752.31;;;20.82;33.97
60061;BME280;45933;51.336;12.612;2023-05-19T09:33:37;100744.59;;;20.76;35.07
60061;BME280;45933;51.336;12.612;2023-05-19T09:36:03;100749.66;;;20.59;34.29
60061;BME280;45933;51.336;12.612;2023-05-19T09:38:33;100743.19;;;20.66;34.48
60061;BME280;45933;51.336;12.612;2023-05-19T09:40:59;100741.38;;;20.68;34.15
60061;BME280;45933;51.336;12.612;2023-05-19T09:43:29;100740.41;;;20.94;36.69
60061;BME280;45933;51.336;12.612;2023-05-19T09:46:04;100739.56;;;21.15;36.15
60061;BME280;45933;51.336;12.612;2023-05-19T09:48:30;100737.25;;;21.30;34.53
60061;BME280;45933;51.336;12.612;2023-05-19T09:50:56;100733.81;;;21.50;34.71
60061;BME280;45933;51.336;12.612;2023-05-19T09:53:23;100727.53;;;21.74;34.71
60061;BME280;45933;51.336;12.612;2023-05-19T09:55:50;100723.88;;;21.97;34.92
60061;BME280;45933;51.336;12.612;2023-05-19T09:58:16;100717.56;;;22.22;34.51
60061;BME280;45933;51.336;12.612;2023-05-19T10:00:42;100729.25;;;22.17;31.92
60061;BME280;45933;51.336;12.612;2023-05-19T10:03:08;100717.00;;;22.34;33.20
60061;BME280;45933;51.336;12.612;2023-05-19T10:05:34;100712.03;;;22.47;32.64
60061;BME280;45933;51.336;12.612;2023-05-19T10:08:00;100708.09;;;22.55;32.96
60061;BME280;45933;51.336;12.612;2023-05-19T10:10:27;100705.59;;;22.71;32.63
60061;BME280;45933;51.336;12.612;2023-05-19T10:12:53;100697.69;;;22.69;32.02
60061;BME280;45933;51.336;12.612;2023-05-19T10:15:19;100707.63;;;22.85;32.46
60061;BME280;45933;51.336;12.612;2023-05-19T10:17:44;100701.09;;;22.92;32.16
60061;BME280;45933;51.336;12.612;2023-05-19T10:20:15;100705.13;;;23.01;32.37
60061;BME280;45933;51.336;12.612;2023-05-19T10:22:42;100693.81;;;23.14;32.67
60061;BME280;45933;51.336;12.612;2023-05-19T10:25:08;100692.66;;;23.20;32.50
60061;BME280;45933;51.336;12.612;2023-05-19T10:27:38;100697.56;;;23.29;32.40
60061;BME280;45933;51.336;12.612;2023-05-19T10:30:10;100685.00;;;23.50;31.56
60061;BME280;45933;51.336;12.612;2023-05-19T10:32:40;100684.69;;;23.56;31.68
60061;BME280;45933;51.336;12.612;2023-05-19T10:38:04;100683.72;;;23.76;31.97
60061;BME280;45933;51.336;12.612;2023-05-19T10:40:36;100681.94;;;23.94;30.90
60061;BME280;45933;51.336;12.612;2023-05-19T10:43:24;100678.56;;;23.90;29.51
60061;BME280;45933;51.336;12.612;2023-05-19T10:45:55;100676.06;;;24.05;30.38
60061;BME280;45933;51.336;12.612;2023-05-19T10:48:21;100677.44;;;24.12;30.25
60061;BME280;45933;51.336;12.612;2023-05-19T10:50:47;100666.31;;;24.21;30.08
60061;BME280;45933;51.336;12.612;2023-05-19T10:53:16;100673.56;;;24.35;31.23
60061;BME280;45933;51.336;12.612;2023-05-19T10:55:53;100674.13;;;24.24;29.07
60061;BME280;45933;51.336;12.612;2023-05-19T11:01:17;100662.13;;;24.50;29.69
60061;BME280;45933;51.336;12.612;2023-05-19T11:03:48;100664.00;;;24.48;29.41
60061;BME280;45933;51.336;12.612;2023-05-19T11:06:24;100663.50;;;24.57;30.46
60061;BME280;45933;51.336;12.612;2023-05-19T11:08:52;100668.63;;;24.44;28.66
60061;BME280;45933;51.336;12.612;2023-05-19T11:11:18;100673.09;;;24.44;28.13
60061;BME280;45933;51.336;12.612;2023-05-19T11:13:49;100671.56;;;24.56;28.43
60061;BME280;45933;51.336;12.612;2023-05-19T11:16:17;100683.19;;;24.55;28.20
60061;BME280;45933;51.336;12.612;2023-05-19T11:18:47;100666.44;;;24.52;28.38
60061;BME280;45933;51.336;12.612;2023-05-19T11:21:12;100657.06;;;24.61;29.86
60061;BME280;45933;51.336;12.612;2023-05-19T11:23:37;100652.34;;;24.66;30.11
60061;BME280;45933;51.336;12.612;2023-05-19T11:26:06;100654.22;;;24.64;29.54
60061;BME280;45933;51.336;12.612;2023-05-19T11:28:33;100656.22;;;24.76;30.01
60061;BME280;45933;51.336;12.612;2023-05-19T11:30:59;100641.00;;;24.78;29.06
60061;BME280;45933;51.336;12.612;2023-05-19T11:33:25;100637.19;;;24.83;29.14
60061;BME280;45933;51.336;12.612;2023-05-19T11:35:53;100636.84;;;24.89;30.10
60061;BME280;45933;51.336;12.612;2023-05-19T11:38:19;100647.72;;;24.86;28.85
60061;BME280;45933;51.336;12.612;2023-05-19T11:40:47;100636.53;;;24.95;28.47
60061;BME280;45933;51.336;12.612;2023-05-19T11:43:13;100634.72;;;24.95;28.38
60061;BME280;45933;51.336;12.612;2023-05-19T11:45:39;100633.69;;;24.98;28.82
60061;BME280;45933;51.336;12.612;2023-05-19T11:48:04;100637.66;;;24.91;27.16
60061;BME280;45933;51.336;12.612;2023-05-19T11:50:31;100640.22;;;24.76;26.21
60061;BME280;45933;51.336;12.612;2023-05-19T11:52:59;100642.97;;;24.75;26.79
60061;BME280;45933;51.336;12.612;2023-05-19T11:55:24;100639.25;;;24.77;26.20
60061;BME280;45933;51.336;12.612;2023-05-19T11:57:59;100637.81;;;24.88;27.51
60061;BME280;45933;51.336;12.612;2023-05-19T12:00:27;100638.06;;;24.83;26.62
60061;BME280;45933;51.336;12.612;2023-05-19T12:02:52;100639.00;;;24.82;27.51
60061;BME280;45933;51.336;12.612;2023-05-19T12:05:22;100634.91;;;25.08;28.49
60061;BME280;45933;51.336;12.612;2023-05-19T12:07:48;100637.16;;;25.16;27.21
60061;BME280;45933;51.336;12.612;2023-05-19T12:10:16;100634.19;;;25.20;28.11
60061;BME280;45933;51.336;12.612;2023-05-19T12:12:41;100630.06;;;25.30;27.30
60061;BME280;45933;51.336;12.612;2023-05-19T12:15:09;100627.13;;;25.35;25.80
60061;BME280;45933;51.336;12.612;2023-05-19T12:17:34;100621.19;;;25.30;24.95
60061;BME280;45933;51.336;12.612;2023-05-19T12:20:00;100619.94;;;25.51;27.15
60061;BME280;45933;51.336;12.612;2023-05-19T12:22:26;100618.03;;;25.53;26.21
60061;BME280;45933;51.336;12.612;2023-05-19T12:24:52;100616.78;;;25.75;26.60
60061;BME280;45933;51.336;12.612;2023-05-19T12:27:26;100608.25;;;25.68;24.51
60061;BME280;45933;51.336;12.612;2023-05-19T12:29:53;100605.56;;;25.84;26.08
60061;BME280;45933;51.336;12.612;2023-05-19T12:32:22;100599.47;;;25.96;26.78
60061;BME280;45933;51.336;12.612;2023-05-19T12:34:48;100609.88;;;26.01;27.14
60061;BME280;45933;51.336;12.612;2023-05-19T12:37:14;100613.97;;;26.21;27.55
60061;BME280;45933;51.336;12.612;2023-05-19T12:39:41;100609.38;;;26.23;26.35
60061;BME280;45933;51.336;12.612;2023-05-19T12:42:10;100611.50;;;26.32;26.30
60061;BME280;45933;51.336;12.612;2023-05-19T12:44:44;100612.13;;;26.36;26.34
60061;BME280;45933;51.336;12.612;2023-05-19T12:47:18;100604.50;;;26.29;25.26
60061;BME280;45933;51.336;12.612;2023-05-19T12:50:00;100603.66;;;26.29;24.92
60061;BME280;45933;51.336;12.612;2023-05-19T12:52:28;100600.13;;;26.28;24.32
60061;BME280;45933;51.336;12.612;2023-05-19T12:55:04;100602.63;;;26.17;23.46